createdAt,value
2022-11-04T00:01:12.909Z,0.73
2022-11-04T00:03:14.403Z,0.52
2022-11-04T00:05:17.737Z,1.30
2022-11-04T00:07:38.009Z,1.33
2022-11-04T00:09:39.619Z,1.65
2022-11-04T00:11:59.930Z,0.50
2022-11-04T00:14:01.732Z,0.35
2022-11-04T00:16:22.076Z,0.43
2022-11-04T00:18:23.628Z,0.90
2022-11-04T00:20:44.820Z,0.55
2022-11-04T00:23:07.499Z,0.60
2022-11-04T00:25:28.487Z,2.10
2022-11-04T00:27:50.511Z,1.05
2022-11-04T00:29:52.267Z,0.52
2022-11-04T00:32:12.015Z,1.20
2022-11-04T00:34:13.475Z,2.20
2022-11-04T00:36:15.333Z,1.85
2022-11-04T00:38:17.731Z,1.38
2022-11-04T00:40:20.177Z,0.80
2022-11-04T00:42:23.950Z,0.60
2022-11-04T00:44:25.353Z,0.63
2022-11-04T00:46:27.769Z,0.73
2022-11-04T00:48:29.121Z,0.40
2022-11-04T00:50:30.593Z,0.50
2022-11-04T00:52:32.056Z,0.20
2022-11-04T00:54:36.275Z,0.28
2022-11-04T00:56:37.901Z,0.50
2022-11-04T00:58:39.275Z,0.40
2022-11-04T01:00:40.790Z,0.50
2022-11-04T01:02:42.897Z,0.57
2022-11-04T01:04:48.566Z,0.90
2022-11-04T01:06:50.793Z,0.40
2022-11-04T01:08:56.654Z,0.73
2022-11-04T01:11:02.441Z,2.75
2022-11-04T01:13:03.954Z,1.67
2022-11-04T01:15:05.751Z,2.78
2022-11-04T01:17:07.293Z,6.07
2022-11-04T01:19:08.920Z,3.83
2022-11-04T01:21:14.570Z,1.85
2022-11-04T01:23:16.042Z,3.33
2022-11-04T01:25:17.481Z,2.38
2022-11-04T01:27:18.944Z,2.88
2022-11-04T01:29:20.472Z,1.92
2022-11-04T01:31:23.486Z,0.75
2022-11-04T01:33:25.089Z,1.55
2022-11-04T01:35:26.533Z,0.75
2022-11-04T01:42:00.388Z,0.57
2022-11-04T01:44:03.657Z,0.68
2022-11-04T01:46:05.297Z,0.30
2022-11-04T01:48:17.183Z,0.57
2022-11-04T01:50:22.752Z,2.08
2022-11-04T01:54:55.205Z,1.55
2022-11-04T01:56:57.394Z,0.90
2022-11-04T01:59:01.090Z,0.60
2022-11-04T02:01:02.887Z,1.77
2022-11-04T02:03:07.867Z,1.17
2022-11-04T02:05:09.778Z,0.93
2022-11-04T02:07:13.879Z,0.85
2022-11-04T02:09:20.257Z,0.90
2022-11-04T02:11:40.384Z,2.13
2022-11-04T02:13:42.170Z,0.77
2022-11-04T02:15:47.363Z,0.82
2022-11-04T02:18:05.450Z,1.10
2022-11-04T02:20:35.879Z,1.40
2022-11-04T02:23:03.171Z,0.73
2022-11-04T02:25:05.047Z,1.20
2022-11-04T02:27:20.723Z,1.67
2022-11-04T02:29:40.168Z,2.53
2022-11-04T02:31:58.032Z,1.00
2022-11-04T02:34:13.987Z,0.90
2022-11-04T02:36:21.887Z,0.70
2022-11-04T02:38:45.770Z,0.70
2022-11-04T02:41:01.343Z,0.65
2022-11-04T02:43:15.481Z,1.45
2022-11-04T02:45:23.074Z,1.55
2022-11-04T02:47:26.743Z,0.93
2022-11-04T02:49:39.764Z,0.70
2022-11-04T02:51:43.979Z,1.25
2022-11-04T02:53:53.627Z,1.52
2022-11-04T02:55:57.423Z,0.90
2022-11-04T02:58:00.539Z,1.75
2022-11-04T03:00:03.761Z,0.85
2022-11-04T03:02:08.274Z,0.45
2022-11-04T03:04:13.831Z,0.80
2022-11-04T03:06:16.858Z,1.00
2022-11-04T03:08:21.869Z,1.27
2022-11-04T03:10:29.668Z,1.83
2022-11-04T03:12:34.718Z,1.20
2022-11-04T03:14:47.460Z,0.95
2022-11-04T03:16:53.157Z,0.50
2022-11-04T03:19:01.641Z,1.73
2022-11-04T03:23:19.995Z,2.65
2022-11-04T03:25:24.195Z,1.23
2022-11-04T03:27:35.613Z,1.75
2022-11-04T03:29:46.518Z,0.77
2022-11-04T03:31:49.085Z,0.75
2022-11-04T03:33:52.578Z,0.82
2022-11-04T03:35:54.291Z,1.73
2022-11-04T03:37:55.848Z,1.55
2022-11-04T03:39:57.367Z,0.70
2022-11-04T03:42:00.814Z,0.82
2022-11-04T03:44:02.319Z,0.68
2022-11-04T03:46:04.770Z,0.73
2022-11-04T03:48:06.462Z,0.77
2022-11-04T03:50:18.938Z,1.65
2022-11-04T03:52:20.783Z,0.95
2022-11-04T03:54:22.234Z,1.10
2022-11-04T03:56:49.795Z,1.63
2022-11-04T03:58:54.105Z,1.65
2022-11-04T04:01:18.835Z,2.33
2022-11-04T04:03:39.137Z,1.88
2022-11-04T04:05:40.591Z,0.90
2022-11-04T04:07:46.507Z,1.70
2022-11-04T04:10:24.444Z,1.50
2022-11-04T04:12:25.825Z,1.83
2022-11-04T04:14:39.216Z,1.60
2022-11-04T04:16:42.488Z,1.10
2022-11-04T04:18:55.791Z,2.35
2022-11-04T04:21:03.014Z,2.25
2022-11-04T04:23:29.653Z,0.73
2022-11-04T04:25:50.301Z,1.20
2022-11-04T04:27:52.643Z,0.50
2022-11-04T04:29:54.367Z,1.40
2022-11-04T04:32:00.674Z,2.13
2022-11-04T04:34:02.939Z,2.70
2022-11-04T04:36:05.501Z,1.38
2022-11-04T04:38:26.951Z,2.35
2022-11-04T04:40:47.260Z,3.50
2022-11-04T04:43:10.144Z,2.20
2022-11-04T04:45:19.653Z,1.05
2022-11-04T04:47:23.630Z,1.83
2022-11-04T04:49:35.072Z,1.13
2022-11-04T04:51:39.430Z,2.05
2022-11-04T04:53:41.055Z,2.42
2022-11-04T04:55:42.528Z,1.60
2022-11-04T04:57:44.340Z,1.80
2022-11-04T04:59:45.796Z,2.05
2022-11-04T05:01:47.329Z,2.20
2022-11-04T05:03:48.714Z,3.15
2022-11-04T05:05:51.709Z,2.42
2022-11-04T05:07:55.102Z,2.22
2022-11-04T05:09:56.706Z,2.75
2022-11-04T05:11:58.539Z,3.42
2022-11-04T05:14:00.096Z,3.03
2022-11-04T05:16:05.639Z,2.78
2022-11-04T05:18:07.894Z,3.63
2022-11-04T05:20:10.197Z,3.42
2022-11-04T05:22:11.883Z,2.22
2022-11-04T05:24:13.582Z,2.03
2022-11-04T05:26:15.235Z,3.47
2022-11-04T05:28:16.888Z,2.28
2022-11-04T05:30:18.367Z,5.50
2022-11-04T05:32:19.811Z,3.90
2022-11-04T05:34:21.249Z,2.60
2022-11-04T05:36:22.753Z,4.15
2022-11-04T05:38:24.510Z,2.88
2022-11-04T05:40:26.166Z,1.25
2022-11-04T05:42:27.799Z,3.30
2022-11-04T05:44:29.160Z,2.58
2022-11-04T05:46:30.829Z,2.50
2022-11-04T05:48:37.759Z,4.65
2022-11-04T05:50:42.110Z,3.78
2022-11-04T05:52:46.058Z,3.88
2022-11-04T05:54:47.569Z,4.53
2022-11-04T05:56:49.062Z,3.22
2022-11-04T05:58:50.503Z,3.47
2022-11-04T06:00:51.979Z,4.57
2022-11-04T06:02:54.095Z,3.25
2022-11-04T06:04:55.818Z,2.60
2022-11-04T06:06:57.416Z,2.58
2022-11-04T06:08:59.326Z,4.68
2022-11-04T06:11:05.530Z,4.57
2022-11-04T06:13:07.035Z,2.90
2022-11-04T06:15:08.996Z,3.15
2022-11-04T06:17:19.959Z,4.30
2022-11-04T06:19:21.382Z,1.92
2022-11-04T06:21:26.862Z,3.53
2022-11-04T06:23:30.290Z,3.28
2022-11-04T06:25:32.120Z,2.35
2022-11-04T06:27:33.593Z,3.25
2022-11-04T06:29:40.145Z,2.35
2022-11-04T06:31:41.493Z,2.95
2022-11-04T06:33:42.889Z,3.20
2022-11-04T06:35:47.517Z,3.35
2022-11-04T06:37:48.873Z,4.70
2022-11-04T06:39:52.722Z,3.25
2022-11-04T06:41:55.501Z,4.40
2022-11-04T06:44:02.315Z,3.95
2022-11-04T06:46:04.339Z,4.72
2022-11-04T06:48:06.042Z,5.13
2022-11-04T06:50:07.963Z,5.38
2022-11-04T06:52:09.841Z,4.63
2022-11-04T06:54:11.303Z,4.22
2022-11-04T06:56:12.874Z,3.33
2022-11-04T06:58:14.384Z,5.20
2022-11-04T07:00:16.003Z,3.78
2022-11-04T07:02:17.520Z,3.80
2022-11-04T07:04:19.497Z,5.43
2022-11-04T07:06:21.524Z,5.63
2022-11-04T07:08:22.951Z,8.25
2022-11-04T07:10:24.453Z,3.30
2022-11-04T07:12:25.944Z,4.65
2022-11-04T07:14:27.983Z,4.95
2022-11-04T07:16:29.330Z,8.30
2022-11-04T07:18:30.670Z,4.70
2022-11-04T07:20:32.517Z,5.97
2022-11-04T07:22:34.402Z,5.43
2022-11-04T07:24:35.930Z,5.30
2022-11-04T07:26:46.019Z,6.90
2022-11-04T07:28:47.568Z,4.75
2022-11-04T07:30:51.915Z,5.50
2022-11-04T07:32:53.924Z,5.90
2022-11-04T07:34:58.283Z,8.57
2022-11-04T07:36:59.823Z,6.38
2022-11-04T07:39:04.460Z,4.28
2022-11-04T07:43:21.771Z,5.20
2022-11-04T07:45:23.197Z,5.07
2022-11-04T07:47:29.855Z,5.43
2022-11-04T07:49:31.311Z,3.67
2022-11-04T07:51:34.628Z,5.20
2022-11-04T07:53:37.004Z,3.00
2022-11-04T07:55:43.207Z,2.88
2022-11-04T07:57:48.661Z,3.30
2022-11-04T07:59:50.360Z,3.22
2022-11-04T08:01:51.980Z,2.72
2022-11-04T08:03:53.597Z,3.90
2022-11-04T08:05:59.636Z,4.50
2022-11-04T08:08:01.196Z,3.00
2022-11-04T08:10:02.807Z,4.07
2022-11-04T08:12:05.216Z,5.85
2022-11-04T08:14:06.630Z,4.70
2022-11-04T08:16:10.497Z,5.97
2022-11-04T08:18:11.998Z,5.03
2022-11-04T08:20:14.774Z,6.07
2022-11-04T08:22:16.588Z,6.03
2022-11-04T08:24:18.164Z,5.10
2022-11-04T08:26:20.705Z,8.02
2022-11-04T08:28:24.637Z,5.13
2022-11-04T08:30:26.531Z,6.20
2022-11-04T08:32:28.056Z,6.07
2022-11-04T08:34:30.130Z,6.38
2022-11-04T08:36:33.189Z,7.15
2022-11-04T08:38:35.044Z,7.18
2022-11-04T08:40:37.073Z,11.07
2022-11-04T08:42:38.595Z,5.28
2022-11-04T08:44:40.443Z,7.05
2022-11-04T08:46:43.230Z,7.30
2022-11-04T08:48:45.950Z,5.45
2022-11-04T08:50:51.450Z,4.25
2022-11-04T08:52:53.914Z,4.65
2022-11-04T08:54:57.464Z,5.88
2022-11-04T08:56:59.523Z,5.80
2022-11-04T08:59:02.433Z,5.05
2022-11-04T09:01:04.896Z,5.10
2022-11-04T09:03:07.106Z,6.53
2022-11-04T09:05:09.094Z,5.65
2022-11-04T09:07:10.719Z,5.88
2022-11-04T09:09:13.749Z,6.65
2022-11-04T09:11:16.344Z,5.50
2022-11-04T09:13:17.911Z,5.43
2022-11-04T09:15:19.709Z,3.30
2022-11-04T09:17:21.320Z,5.78
2022-11-04T09:19:22.839Z,3.42
2022-11-04T09:21:24.706Z,3.88
2022-11-04T09:23:26.778Z,6.15
2022-11-04T09:25:31.266Z,4.90
2022-11-04T09:27:35.182Z,3.53
2022-11-04T09:29:39.762Z,3.13
2022-11-04T09:31:43.818Z,3.67
2022-11-04T09:33:46.266Z,5.00
2022-11-04T09:35:57.973Z,4.40
2022-11-04T09:38:01.559Z,5.30
2022-11-04T09:40:03.574Z,3.80
2022-11-04T09:42:24.746Z,7.50
2022-11-04T09:44:32.780Z,10.57
2022-11-04T09:46:35.178Z,6.88
2022-11-04T09:48:50.509Z,5.70
2022-11-04T09:50:54.112Z,7.18
2022-11-04T09:52:57.482Z,6.43
2022-11-04T09:55:06.847Z,7.80
2022-11-04T09:57:13.485Z,4.43
2022-11-04T09:59:20.851Z,4.90
2022-11-04T10:01:35.042Z,7.25
2022-11-04T10:03:43.891Z,5.20
2022-11-04T10:06:04.074Z,7.53
2022-11-04T10:08:24.170Z,9.02
2022-11-04T10:10:34.798Z,7.90
2022-11-04T10:12:55.526Z,8.07
2022-11-04T10:15:15.481Z,7.40
2022-11-04T10:17:25.723Z,9.57
2022-11-04T10:19:42.323Z,10.13
2022-11-04T10:21:58.845Z,10.85
2022-11-04T10:24:07.574Z,7.22
2022-11-04T10:26:19.500Z,7.68
2022-11-04T10:28:30.474Z,9.10
2022-11-04T10:30:34.927Z,7.00
2022-11-04T10:32:36.571Z,5.28
2022-11-04T10:34:41.705Z,5.95
2022-11-04T10:36:43.581Z,5.68
2022-11-04T10:38:48.772Z,6.05
2022-11-04T10:40:54.069Z,4.75
2022-11-04T10:42:57.479Z,5.28
2022-11-04T10:44:59.029Z,7.22
2022-11-04T10:47:12.367Z,5.78
2022-11-04T10:49:26.495Z,5.32
2022-11-04T10:51:29.560Z,8.32
2022-11-04T10:53:32.904Z,5.88
2022-11-04T10:55:52.922Z,7.00
2022-11-04T10:57:57.031Z,3.50
2022-11-04T11:00:03.475Z,2.92
2022-11-04T11:02:07.786Z,4.05
2022-11-04T11:04:24.185Z,3.00
2022-11-04T11:06:29.831Z,3.08
2022-11-04T11:08:35.617Z,5.63
2022-11-04T11:10:37.535Z,5.13
2022-11-04T11:12:51.634Z,3.50
2022-11-04T11:14:53.990Z,5.00
2022-11-04T11:16:56.415Z,2.60
2022-11-04T11:19:08.285Z,4.25
2022-11-04T11:21:09.775Z,4.80
2022-11-04T11:23:30.181Z,3.80
2022-11-04T11:25:35.887Z,3.80
2022-11-04T11:27:37.356Z,3.75
2022-11-04T11:29:43.004Z,2.53
2022-11-04T11:31:52.784Z,6.05
2022-11-04T11:33:56.013Z,2.05
2022-11-04T11:36:06.818Z,2.50
2022-11-04T11:38:21.155Z,1.75
2022-11-04T11:40:26.598Z,2.78
2022-11-04T11:42:28.488Z,3.63
2022-11-04T11:44:33.330Z,10.20
2022-11-04T11:46:40.719Z,9.15
2022-11-04T11:48:43.526Z,2.15
2022-11-04T11:50:55.018Z,2.03
2022-11-04T11:53:08.453Z,3.33
2022-11-04T11:55:24.415Z,3.03
2022-11-04T11:57:25.985Z,4.65
2022-11-04T12:02:20.755Z,5.40
2022-11-04T12:09:23.309Z,2.88
2022-11-04T12:11:34.764Z,2.72
2022-11-04T12:13:50.597Z,2.08
2022-11-04T12:16:07.040Z,5.88
2022-11-04T12:18:08.818Z,4.35
2022-11-04T12:20:21.052Z,3.33
2022-11-04T12:22:39.663Z,7.82
2022-11-04T12:24:44.285Z,2.42
2022-11-04T12:26:53.371Z,2.38
2022-11-04T12:29:01.549Z,1.30
2022-11-04T12:31:06.515Z,2.13
2022-11-04T12:33:08.816Z,1.80
2022-11-04T12:35:24.786Z,2.28
2022-11-04T12:37:45.070Z,1.60
2022-11-04T12:39:54.369Z,2.95
2022-11-04T12:42:20.582Z,3.95
2022-11-04T12:44:24.529Z,7.22
2022-11-04T12:46:36.790Z,5.60
2022-11-04T12:49:06.008Z,4.13
2022-11-04T12:51:19.982Z,5.00
2022-11-04T12:53:28.728Z,5.53
2022-11-04T12:55:46.876Z,3.08
2022-11-04T12:57:57.901Z,2.55
2022-11-04T13:00:13.308Z,3.65
2022-11-04T13:02:21.595Z,2.95
2022-11-04T13:04:32.403Z,3.72
2022-11-04T13:06:38.040Z,2.08
2022-11-04T13:08:43.169Z,4.30
2022-11-04T13:10:54.002Z,2.53
2022-11-04T13:15:03.477Z,2.17
2022-11-04T13:17:06.956Z,3.28
2022-11-04T13:19:16.294Z,3.67
2022-11-04T13:21:27.536Z,4.43
2022-11-04T13:23:32.610Z,2.20
2022-11-04T13:25:45.553Z,3.97
2022-11-04T13:27:48.369Z,2.95
2022-11-04T13:30:22.532Z,1.92
2022-11-04T13:32:27.575Z,1.85
2022-11-04T13:34:41.994Z,1.05
2022-11-04T13:36:48.707Z,1.60
2022-11-04T13:39:10.432Z,0.95
2022-11-04T13:41:30.436Z,1.75
2022-11-04T13:43:38.545Z,2.10
2022-11-04T13:45:45.770Z,1.27
2022-11-04T13:47:47.438Z,1.38
2022-11-04T13:49:50.187Z,1.48
2022-11-04T13:52:04.768Z,2.28
2022-11-04T13:54:07.891Z,2.22
2022-11-04T13:56:32.147Z,2.47
2022-11-04T13:58:34.353Z,2.30
2022-11-04T14:00:37.837Z,2.75
2022-11-04T14:02:46.401Z,1.60
2022-11-04T14:04:48.010Z,1.10
2022-11-04T14:06:58.217Z,1.08
2022-11-04T14:09:18.128Z,1.67
2022-11-04T14:11:22.466Z,3.30
2022-11-04T14:13:35.047Z,1.55
2022-11-04T14:15:59.686Z,1.98
2022-11-04T14:18:01.818Z,2.72
2022-11-04T14:20:09.316Z,2.50
2022-11-04T14:22:15.631Z,2.65
2022-11-04T14:24:19.061Z,3.92
2022-11-04T14:26:27.403Z,2.05
2022-11-04T14:28:30.259Z,2.97
2022-11-04T14:30:50.839Z,1.85
2022-11-04T14:32:55.592Z,2.75
2022-11-04T14:35:02.293Z,1.30
2022-11-04T14:37:07.019Z,2.35
2022-11-04T14:39:11.532Z,1.98
2022-11-04T14:41:22.747Z,1.95
2022-11-04T14:43:31.056Z,1.75
2022-11-04T14:45:39.465Z,2.45
2022-11-04T14:47:42.872Z,3.05
2022-11-04T14:49:46.707Z,2.08
2022-11-04T14:51:48.585Z,1.33
2022-11-04T14:53:51.537Z,2.85
2022-11-04T14:56:06.162Z,1.92
2022-11-04T14:58:34.506Z,1.83
2022-11-04T15:00:41.148Z,2.72
2022-11-04T15:02:43.531Z,4.43
2022-11-04T15:04:51.583Z,4.45
2022-11-04T15:06:55.693Z,3.25
2022-11-04T15:08:59.364Z,2.72
2022-11-04T15:11:41.586Z,5.35
2022-11-04T15:13:46.257Z,6.35
2022-11-04T15:15:50.693Z,6.05
2022-11-04T15:17:52.806Z,4.47
2022-11-04T15:19:56.788Z,3.25
2022-11-04T15:21:59.430Z,3.35
2022-11-04T15:24:02.031Z,3.78
2022-11-04T15:26:05.135Z,2.30
2022-11-04T15:28:15.853Z,5.18
2022-11-04T15:30:27.686Z,3.88
2022-11-04T15:32:29.373Z,2.78
2022-11-04T15:34:31.826Z,2.55
2022-11-04T15:36:36.338Z,4.13
2022-11-04T15:38:39.610Z,3.72
2022-11-04T15:40:42.193Z,3.90
2022-11-04T15:42:45.088Z,3.75
2022-11-04T15:44:49.712Z,6.47
2022-11-04T15:46:57.894Z,2.47
2022-11-04T15:49:00.630Z,4.60
2022-11-04T15:51:21.763Z,3.42
2022-11-04T15:53:23.290Z,2.63
2022-11-04T15:55:26.193Z,4.53
2022-11-04T15:57:35.288Z,3.83
2022-11-04T15:59:38.910Z,3.83
2022-11-04T16:01:48.412Z,2.90
2022-11-04T16:03:51.281Z,2.83
2022-11-04T16:06:03.993Z,2.92
2022-11-04T16:08:17.404Z,3.70
2022-11-04T16:10:30.820Z,2.20
2022-11-04T16:12:36.644Z,4.05
2022-11-04T16:14:38.231Z,3.45
2022-11-04T16:16:40.070Z,2.88
2022-11-04T16:18:48.995Z,2.25
2022-11-04T16:20:53.536Z,3.08
2022-11-04T16:25:19.937Z,2.85
2022-11-04T16:27:24.366Z,2.88
2022-11-04T16:29:31.511Z,3.10
2022-11-04T16:31:34.690Z,3.25
2022-11-04T16:33:39.152Z,4.13
2022-11-04T16:35:43.732Z,3.53
2022-11-04T16:37:45.972Z,2.53
2022-11-04T16:39:47.607Z,2.80
2022-11-04T16:41:49.130Z,3.28
2022-11-04T16:43:53.715Z,3.15
2022-11-04T16:45:55.402Z,2.90
2022-11-04T16:47:57.450Z,2.70
2022-11-04T16:50:01.911Z,3.70
2022-11-04T16:52:06.519Z,1.42
2022-11-04T16:54:09.015Z,3.35
2022-11-04T16:56:11.808Z,2.97
2022-11-04T16:58:17.784Z,3.47
2022-11-04T17:00:23.826Z,2.90
2022-11-04T17:02:30.894Z,3.22
2022-11-04T17:04:32.578Z,3.47
2022-11-04T17:06:35.185Z,3.60
2022-11-04T17:08:36.674Z,3.38
2022-11-04T17:10:38.318Z,2.45
2022-11-04T17:12:39.799Z,2.78
2022-11-04T17:14:41.445Z,2.10
2022-11-04T17:16:43.967Z,2.35
2022-11-04T17:18:47.132Z,1.50
2022-11-04T17:20:53.575Z,2.60
2022-11-04T17:22:56.890Z,2.13
2022-11-04T17:24:58.375Z,3.10
2022-11-04T17:26:59.957Z,3.53
2022-11-04T17:29:01.583Z,3.25
2022-11-04T17:31:03.238Z,3.00
2022-11-04T17:33:06.664Z,3.03
2022-11-04T17:35:08.665Z,2.00
2022-11-04T17:37:12.929Z,1.25
2022-11-04T17:39:14.578Z,1.65
2022-11-04T17:41:34.745Z,3.15
2022-11-04T17:43:54.913Z,1.27
2022-11-04T17:46:16.330Z,1.38
2022-11-04T17:48:17.727Z,2.95
2022-11-04T17:50:19.207Z,1.20
2022-11-04T17:52:20.634Z,2.20
2022-11-04T17:54:22.677Z,1.20
2022-11-04T17:56:25.761Z,3.47
2022-11-04T17:58:30.006Z,1.70
2022-11-04T18:00:31.546Z,2.58
2022-11-04T18:02:33.453Z,2.63
2022-11-04T18:04:35.352Z,2.20
2022-11-04T18:06:39.517Z,1.42
2022-11-04T18:08:41.200Z,1.45
2022-11-04T18:10:42.634Z,3.78
2022-11-04T18:12:44.166Z,10.55
2022-11-04T18:14:45.714Z,3.55
2022-11-04T18:16:48.100Z,5.28
2022-11-04T18:18:49.547Z,5.90
2022-11-04T18:20:51.030Z,3.42
2022-11-04T18:22:52.381Z,11.82
2022-11-04T18:24:54.067Z,1.90
2022-11-04T18:26:57.250Z,2.28
2022-11-04T18:28:58.775Z,1.67
2022-11-04T18:31:00.252Z,1.58
2022-11-04T18:33:04.113Z,1.60
2022-11-04T18:35:05.700Z,2.47
2022-11-04T18:37:07.082Z,1.92
2022-11-04T18:39:10.470Z,2.00
2022-11-04T18:41:11.980Z,3.50
2022-11-04T18:43:13.783Z,2.25
2022-11-04T18:45:15.557Z,2.22
2022-11-04T18:47:17.959Z,1.90
2022-11-04T18:49:20.608Z,2.13
2022-11-04T18:51:22.776Z,1.55
2022-11-04T18:53:27.044Z,1.75
2022-11-04T18:55:28.599Z,1.80
2022-11-04T18:57:30.206Z,1.80
2022-11-04T18:59:31.791Z,2.25
2022-11-04T19:01:34.189Z,1.90
2022-11-04T19:05:58.126Z,2.22
2022-11-04T19:08:00.583Z,1.60
2022-11-04T19:10:02.056Z,2.35
2022-11-04T19:12:25.784Z,2.50
2022-11-04T19:14:27.154Z,1.67
2022-11-04T19:16:29.974Z,1.77
2022-11-04T19:18:31.417Z,2.25
2022-11-04T19:20:33.510Z,3.85
2022-11-04T19:22:34.896Z,1.85
2022-11-04T19:24:38.733Z,2.72
2022-11-04T19:26:41.368Z,3.33
2022-11-04T19:28:48.165Z,1.98
2022-11-04T19:31:05.214Z,3.15
2022-11-04T19:33:08.315Z,2.95
2022-11-04T19:35:09.711Z,1.88
2022-11-04T19:37:11.434Z,1.58
2022-11-04T19:39:12.912Z,2.65
2022-11-04T19:41:48.802Z,2.30
2022-11-04T19:43:50.287Z,2.53
2022-11-04T19:45:51.791Z,1.70
2022-11-04T19:47:53.243Z,2.40
2022-11-04T19:49:55.641Z,2.25
2022-11-04T19:51:59.623Z,2.00
2022-11-04T19:54:02.227Z,2.05
2022-11-04T19:56:03.701Z,1.85
2022-11-04T19:58:05.160Z,1.73
2022-11-04T20:00:07.147Z,1.77
2022-11-04T20:02:10.502Z,1.63
2022-11-04T20:04:13.992Z,1.45
2022-11-04T20:06:16.408Z,1.70
2022-11-04T20:08:17.783Z,2.28
2022-11-04T20:10:19.263Z,1.58
2022-11-04T20:12:39.753Z,1.45
2022-11-04T20:14:43.718Z,1.67
2022-11-04T20:16:45.209Z,2.05
2022-11-04T20:18:47.877Z,1.90
2022-11-04T20:20:50.086Z,2.95
2022-11-04T20:22:53.764Z,20.13
2022-11-04T20:24:55.187Z,3.05
2022-11-04T20:26:56.584Z,5.38
2022-11-04T20:28:58.372Z,1.92
2022-11-04T20:30:59.874Z,1.77
2022-11-04T20:33:03.658Z,1.20
2022-11-04T20:35:05.302Z,1.65
2022-11-04T20:37:06.792Z,2.65
2022-11-04T20:39:19.257Z,1.65
2022-11-04T20:41:25.908Z,1.45
2022-11-04T20:43:27.236Z,1.65
2022-11-04T20:45:33.766Z,1.65
2022-11-04T20:47:38.289Z,1.33
2022-11-04T20:49:40.193Z,1.80
2022-11-04T20:54:06.827Z,1.88
2022-11-04T20:56:30.093Z,2.70
2022-11-04T20:58:34.710Z,1.80
2022-11-04T21:00:37.154Z,1.88
2022-11-04T21:02:38.779Z,1.50
2022-11-04T21:04:42.379Z,1.77
2022-11-04T21:06:47.102Z,1.75
2022-11-04T21:08:50.722Z,1.27
2022-11-04T21:13:11.524Z,1.33
2022-11-04T21:15:36.181Z,1.63
2022-11-04T21:17:40.353Z,0.80
2022-11-04T21:19:43.011Z,1.27
2022-11-04T21:21:55.526Z,1.17
2022-11-04T21:24:01.417Z,5.40
2022-11-04T21:26:10.672Z,9.73
2022-11-04T21:28:13.554Z,6.85
2022-11-04T21:30:46.413Z,2.72
2022-11-04T21:32:48.184Z,2.38
2022-11-04T21:34:51.544Z,2.92
2022-11-04T21:36:55.764Z,1.20
2022-11-04T21:38:58.472Z,1.77
2022-11-04T21:41:02.174Z,1.52
2022-11-04T21:43:03.698Z,1.00
2022-11-04T21:45:05.389Z,2.35
2022-11-04T21:47:10.694Z,1.40
2022-11-04T21:49:12.866Z,1.23
2022-11-04T21:51:19.004Z,1.30
2022-11-04T21:53:20.675Z,1.20
2022-11-04T21:55:22.466Z,1.10
2022-11-04T21:57:23.994Z,0.80
2022-11-04T21:59:25.828Z,1.23
2022-11-04T22:01:31.102Z,0.80
2022-11-04T22:03:33.486Z,0.90
2022-11-04T22:05:35.063Z,0.88
2022-11-04T22:07:55.160Z,1.65
2022-11-04T22:09:56.618Z,0.90
2022-11-04T22:11:58.484Z,1.10
2022-11-04T22:14:02.975Z,1.50
2022-11-04T22:16:12.423Z,2.75
2022-11-04T22:18:15.479Z,1.17
2022-11-04T22:20:17.813Z,2.17
2022-11-04T22:22:19.453Z,1.50
2022-11-04T22:24:21.339Z,5.30
2022-11-04T22:26:26.636Z,5.00
2022-11-04T22:28:28.652Z,0.90
2022-11-04T22:30:32.152Z,1.08
2022-11-04T22:32:34.333Z,0.98
2022-11-04T22:34:35.820Z,1.10
2022-11-04T22:36:38.223Z,1.25
2022-11-04T22:38:40.606Z,0.98
2022-11-04T22:40:42.176Z,0.90
2022-11-04T22:42:43.742Z,0.63
2022-11-04T22:44:47.350Z,1.55
2022-11-04T22:46:48.738Z,0.80
2022-11-04T22:48:50.935Z,1.50
2022-11-04T22:50:56.868Z,0.80
2022-11-04T22:52:58.405Z,1.95
2022-11-04T22:54:59.862Z,1.38
2022-11-04T22:57:01.435Z,1.17
2022-11-04T22:59:02.915Z,0.82
2022-11-04T23:01:09.545Z,1.13
2022-11-04T23:03:11.851Z,2.05
2022-11-04T23:05:13.868Z,1.20
2022-11-04T23:07:16.063Z,1.92
2022-11-04T23:09:17.571Z,2.28
2022-11-04T23:11:39.051Z,1.50
2022-11-04T23:14:02.287Z,1.17
2022-11-04T23:16:23.362Z,1.80
2022-11-04T23:18:43.495Z,1.63
2022-11-04T23:21:05.222Z,1.25
2022-11-04T23:23:25.059Z,1.23
2022-11-04T23:25:26.670Z,1.15
2022-11-04T23:27:46.854Z,0.85
2022-11-04T23:30:06.902Z,1.10
2022-11-04T23:32:08.676Z,0.83
2022-11-04T23:34:28.917Z,2.67
2022-11-04T23:36:49.373Z,1.30
2022-11-04T23:38:51.023Z,1.75
2022-11-04T23:41:13.774Z,3.08
2022-11-04T23:43:15.303Z,2.40
2022-11-04T23:45:35.417Z,3.00
2022-11-04T23:47:59.585Z,1.02
2022-11-04T23:50:19.790Z,0.80
2022-11-04T23:52:39.546Z,0.77
2022-11-04T23:54:59.665Z,0.95
2022-11-04T23:57:19.855Z,1.88
2022-11-04T23:59:39.818Z,1.45
